sensor_id;sensor_type;location;lat;lon;timestamp;pressure;altitude;pressure_sealevel;temperature;humidity
6528;BME280;64597;42.664;23.256;2023-03-01T00:01:59;95019.22;;;7.24;71.56
6528;BME280;64597;42.664;23.256;2023-03-01T00:04:25;95025.88;;;7.07;72.27
6528;BME280;64597;42.664;23.256;2023-03-01T00:06:50;95008.75;;;7.11;71.89
6528;BME280;64597;42.664;23.256;2023-03-01T00:09:16;95008.75;;;7.11;71.72
6528;BME280;64597;42.664;23.256;2023-03-01T00:11:42;95007.34;;;7.09;71.89
6528;BME280;64597;42.664;23.256;2023-03-01T00:14:08;94979.72;;;6.80;72.21
6528;BME280;64597;42.664;23.256;2023-03-01T00:16:36;94997.25;;;6.99;71.85
6528;BME280;64597;42.664;23.256;2023-03-01T00:19:04;94995.81;;;7.03;71.91
6528;BME280;64597;42.664;23.256;2023-03-01T00:21:30;94969.25;;;6.87;72.05
6528;BME280;64597;42.664;23.256;2023-03-01T00:23:55;94984.94;;;6.93;72.15
6528;BME280;64597;42.664;23.256;2023-03-01T00:26:23;94988.97;;;6.89;72.26
6528;BME280;64597;42.664;23.256;2023-03-01T00:28:50;94930.91;;;6.53;72.16
6528;BME280;64597;42.664;23.256;2023-03-01T00:31:20;94974.66;;;6.98;72.05
6528;BME280;64597;42.664;23.256;2023-03-01T00:33:46;94981.31;;;7.07;71.69
6528;BME280;64597;42.664;23.256;2023-03-01T00:36:13;94976.28;;;7.12;71.30
6528;BME280;64597;42.664;23.256;2023-03-01T00:38:42;94975.69;;;6.84;71.83
6528;BME280;64597;42.664;23.256;2023-03-01T00:41:11;94964.78;;;6.87;72.21
6528;BME280;64597;42.664;23.256;2023-03-01T00:43:37;94972.06;;;6.98;71.77
6528;BME280;64597;42.664;23.256;2023-03-01T00:46:09;94974.84;;;7.03;71.68
6528;BME280;64597;42.664;23.256;2023-03-01T00:48:35;94969.63;;;7.03;71.37
6528;BME280;64597;42.664;23.256;2023-03-01T00:51:19;94962.56;;;6.97;71.59
6528;BME280;64597;42.664;23.256;2023-03-01T00:53:45;94962.75;;;6.89;71.71
6528;BME280;64597;42.664;23.256;2023-03-01T00:56:13;94942.59;;;6.83;71.64
6528;BME280;64597;42.664;23.256;2023-03-01T00:58:39;94951.06;;;6.85;71.69
6528;BME280;64597;42.664;23.256;2023-03-01T01:01:10;94962.16;;;6.48;71.64
6528;BME280;64597;42.664;23.256;2023-03-01T01:03:53;94975.88;;;6.89;71.56
6528;BME280;64597;42.664;23.256;2023-03-01T01:06:21;94975.88;;;6.89;71.82
6528;BME280;64597;42.664;23.256;2023-03-01T01:08:48;94980.50;;;6.94;71.29
6528;BME280;64597;42.664;23.256;2023-03-01T01:11:14;94976.47;;;6.98;71.20
6528;BME280;64597;42.664;23.256;2023-03-01T01:13:41;94977.88;;;6.87;71.39
6528;BME280;64597;42.664;23.256;2023-03-01T01:16:07;94979.31;;;6.96;71.36
6528;BME280;64597;42.664;23.256;2023-03-01T01:18:33;94970.84;;;7.01;71.06
6528;BME280;64597;42.664;23.256;2023-03-01T01:21:14;94979.69;;;7.00;71.00
6528;BME280;64597;42.664;23.256;2023-03-01T01:23:40;94965.59;;;6.81;70.81
6528;BME280;64597;42.664;23.256;2023-03-01T01:26:09;94978.88;;;6.73;71.22
6528;BME280;64597;42.664;23.256;2023-03-01T01:28:35;94968.19;;;6.55;71.52
6528;BME280;64597;42.664;23.256;2023-03-01T01:31:01;94974.66;;;6.72;71.58
6528;BME280;64597;42.664;23.256;2023-03-01T01:33:26;94977.28;;;6.85;70.89
6528;BME280;64597;42.664;23.256;2023-03-01T01:35:52;94983.13;;;6.94;70.73
6528;BME280;64597;42.664;23.256;2023-03-01T01:38:18;94991.41;;;6.91;70.86
6528;BME280;64597;42.664;23.256;2023-03-01T01:40:45;94988.97;;;6.89;70.91
6528;BME280;64597;42.664;23.256;2023-03-01T01:43:21;94987.34;;;6.75;70.68
6528;BME280;64597;42.664;23.256;2023-03-01T01:45:48;94994.03;;;6.91;70.51
6528;BME280;64597;42.664;23.256;2023-03-01T01:48:18;94977.28;;;6.85;70.22
6528;BME280;64597;42.664;23.256;2023-03-01T01:50:45;94990.19;;;6.93;70.56
6528;BME280;64597;42.664;23.256;2023-03-01T01:53:16;94985.53;;;6.95;70.18
6528;BME280;64597;42.664;23.256;2023-03-01T01:55:52;94980.91;;;6.84;70.42
6528;BME280;64597;42.664;23.256;2023-03-01T01:58:19;94989.97;;;6.75;70.32
6528;BME280;64597;42.664;23.256;2023-03-01T02:00:46;94968.41;;;6.73;70.72
6528;BME280;64597;42.664;23.256;2023-03-01T02:03:15;94976.66;;;6.83;70.01
6528;BME280;64597;42.664;23.256;2023-03-01T02:05:51;94968.44;;;6.86;70.39
6528;BME280;64597;42.664;23.256;2023-03-01T02:08:19;94935.56;;;6.77;69.90
6528;BME280;64597;42.664;23.256;2023-03-01T02:10:45;94967.00;;;6.90;69.68
6528;BME280;64597;42.664;23.256;2023-03-01T02:13:12;94960.75;;;6.78;69.99
6528;BME280;64597;42.664;23.256;2023-03-01T02:15:39;94947.03;;;6.63;69.95
6528;BME280;64597;42.664;23.256;2023-03-01T02:18:06;94952.28;;;6.63;70.21
6528;BME280;64597;42.664;23.256;2023-03-01T02:23:22;94946.44;;;6.48;70.35
6528;BME280;64597;42.664;23.256;2023-03-01T02:28:26;94956.09;;;6.47;70.58
6528;BME280;64597;42.664;23.256;2023-03-01T02:30:53;94962.34;;;6.53;70.52
6528;BME280;64597;42.664;23.256;2023-03-01T02:33:39;94958.13;;;6.52;70.19
6528;BME280;64597;42.664;23.256;2023-03-01T02:36:08;94964.97;;;6.53;70.07
6528;BME280;64597;42.664;23.256;2023-03-01T02:38:35;94967.59;;;6.53;70.43
6528;BME280;64597;42.664;23.256;2023-03-01T02:41:02;94967.16;;;6.43;70.36
6528;BME280;64597;42.664;23.256;2023-03-01T02:43:31;94956.91;;;6.48;70.63
6528;BME280;64597;42.664;23.256;2023-03-01T02:46:01;94960.31;;;6.48;70.55
6528;BME280;64597;42.664;23.256;2023-03-01T02:48:49;94970.00;;;6.54;70.50
6528;BME280;64597;42.664;23.256;2023-03-01T02:54:18;94954.69;;;6.51;70.43
6528;BME280;64597;42.664;23.256;2023-03-01T02:56:46;94945.81;;;6.59;70.28
6528;BME280;64597;42.664;23.256;2023-03-01T02:59:19;94953.91;;;6.57;70.22
6528;BME280;64597;42.664;23.256;2023-03-01T03:01:46;94952.06;;;6.45;70.73
6528;BME280;64597;42.664;23.256;2023-03-01T03:04:17;94960.28;;;6.42;70.95
6528;BME280;64597;42.664;23.256;2023-03-01T03:06:47;94954.28;;;6.41;70.91
6528;BME280;64597;42.664;23.256;2023-03-01T03:09:14;94951.03;;;6.33;71.31
6528;BME280;64597;42.664;23.256;2023-03-01T03:11:40;94948.59;;;6.25;71.68
6528;BME280;64597;42.664;23.256;2023-03-01T03:14:07;94960.69;;;6.19;71.56
6528;BME280;64597;42.664;23.256;2023-03-01T03:16:40;94974.97;;;6.17;72.29
6528;BME280;64597;42.664;23.256;2023-03-01T03:19:06;94964.69;;;6.22;71.74
6528;BME280;64597;42.664;23.256;2023-03-01T03:21:32;94959.03;;;6.12;71.89
6528;BME280;64597;42.664;23.256;2023-03-01T03:23:58;94952.38;;;6.16;72.05
6528;BME280;64597;42.664;23.256;2023-03-01T03:26:24;94959.25;;;6.17;72.77
6528;BME280;64597;42.664;23.256;2023-03-01T03:28:49;94957.03;;;6.20;72.02
6528;BME280;64597;42.664;23.256;2023-03-01T03:31:14;94953.44;;;6.21;72.21
6528;BME280;64597;42.664;23.256;2023-03-01T03:33:40;94959.03;;;6.12;72.77
6528;BME280;64597;42.664;23.256;2023-03-01T03:36:06;94958.22;;;6.18;72.08
6528;BME280;64597;42.664;23.256;2023-03-01T03:38:31;94955.81;;;6.16;72.54
6528;BME280;64597;42.664;23.256;2023-03-01T03:41:03;94959.88;;;6.19;72.55
6528;BME280;64597;42.664;23.256;2023-03-01T03:43:30;94950.22;;;6.19;72.56
6528;BME280;64597;42.664;23.256;2023-03-01T03:45:56;94951.00;;;6.20;71.98
6528;BME280;64597;42.664;23.256;2023-03-01T03:48:42;94942.91;;;6.08;72.12
6528;BME280;64597;42.664;23.256;2023-03-01T03:51:13;94948.97;;;6.09;72.89
6528;BME280;64597;42.664;23.256;2023-03-01T03:53:39;94951.78;;;6.14;72.65
6528;BME280;64597;42.664;23.256;2023-03-01T03:56:05;94940.50;;;6.07;72.46
6528;BME280;64597;42.664;23.256;2023-03-01T03:58:31;94944.53;;;6.03;72.75
6528;BME280;64597;42.664;23.256;2023-03-01T04:00:57;94949.53;;;6.04;73.07
6528;BME280;64597;42.664;23.256;2023-03-01T04:03:24;94952.81;;;6.13;72.76
6528;BME280;64597;42.664;23.256;2023-03-01T04:05:51;94951.78;;;6.14;72.57
6528;BME280;64597;42.664;23.256;2023-03-01T04:08:21;94951.34;;;6.04;72.70
6528;BME280;64597;42.664;23.256;2023-03-01T04:10:50;94951.97;;;6.06;72.71
6528;BME280;64597;42.664;23.256;2023-03-01T04:13:19;94956.38;;;6.05;72.96
6528;BME280;64597;42.664;23.256;2023-03-01T04:15:48;94950.97;;;6.07;72.77
6528;BME280;64597;42.664;23.256;2023-03-01T04:18:15;94960.25;;;6.16;72.84
6528;BME280;64597;42.664;23.256;2023-03-01T04:20:42;94956.03;;;6.15;72.38
6528;BME280;64597;42.664;23.256;2023-03-01T04:23:11;94957.00;;;6.07;72.61
6528;BME280;64597;42.664;23.256;2023-03-01T04:28:31;94939.47;;;5.95;72.69
6528;BME280;64597;42.664;23.256;2023-03-01T04:31:19;94960.03;;;6.04;72.74
6528;BME280;64597;42.664;23.256;2023-03-01T04:33:54;94962.44;;;6.06;72.76
6528;BME280;64597;42.664;23.256;2023-03-01T04:36:22;94960.22;;;6.03;73.09
6528;BME280;64597;42.664;23.256;2023-03-01T04:38:48;94949.34;;;6.06;72.89
6528;BME280;64597;42.664;23.256;2023-03-01T04:41:18;94949.75;;;6.03;73.15
6528;BME280;64597;42.664;23.256;2023-03-01T04:43:44;94944.69;;;5.95;72.90
6528;BME280;64597;42.664;23.256;2023-03-01T04:46:12;94938.03;;;5.92;73.10
6528;BME280;64597;42.664;23.256;2023-03-01T04:48:39;94946.88;;;5.91;73.26
6528;BME280;64597;42.664;23.256;2023-03-01T04:51:06;94940.44;;;5.94;73.35
6528;BME280;64597;42.664;23.256;2023-03-01T04:53:34;94942.78;;;5.75;73.81
6528;BME280;64597;42.664;23.256;2023-03-01T04:56:01;94948.84;;;5.82;73.92
6528;BME280;64597;42.664;23.256;2023-03-01T04:58:27;94946.47;;;5.88;73.44
6528;BME280;64597;42.664;23.256;2023-03-01T05:00:54;94946.28;;;5.96;72.95
6528;BME280;64597;42.664;23.256;2023-03-01T05:03:23;94949.31;;;5.93;72.75
6528;BME280;64597;42.664;23.256;2023-03-01T05:05:50;94957.38;;;5.98;73.57
6528;BME280;64597;42.664;23.256;2023-03-01T05:08:16;94949.69;;;5.90;73.38
6528;BME280;64597;42.664;23.256;2023-03-01T05:10:49;94945.69;;;5.94;73.14
6528;BME280;64597;42.664;23.256;2023-03-01T05:13:14;94953.16;;;5.97;72.72
6528;BME280;64597;42.664;23.256;2023-03-01T05:15:53;94941.84;;;5.90;72.88
6528;BME280;64597;42.664;23.256;2023-03-01T05:18:18;94955.16;;;5.95;72.93
6528;BME280;64597;42.664;23.256;2023-03-01T05:20:44;94955.00;;;6.03;72.59
6528;BME280;64597;42.664;23.256;2023-03-01T05:23:10;94960.19;;;5.96;72.72
6528;BME280;64597;42.664;23.256;2023-03-01T05:25:35;94939.63;;;5.87;72.94
6528;BME280;64597;42.664;23.256;2023-03-01T05:28:06;94956.00;;;6.08;72.06
6528;BME280;64597;42.664;23.256;2023-03-01T05:30:33;94950.97;;;6.07;71.93
6528;BME280;64597;42.664;23.256;2023-03-01T05:32:59;94957.63;;;6.16;71.88
6528;BME280;64597;42.664;23.256;2023-03-01T05:35:24;94935.66;;;6.04;72.68
6528;BME280;64597;42.664;23.256;2023-03-01T05:37:50;94956.41;;;6.12;72.47
6528;BME280;64597;42.664;23.256;2023-03-01T05:40:18;94955.84;;;6.23;72.22
6528;BME280;64597;42.664;23.256;2023-03-01T05:42:46;94957.84;;;6.21;72.18
6528;BME280;64597;42.664;23.256;2023-03-01T05:45:13;94952.22;;;6.24;71.70
6528;BME280;64597;42.664;23.256;2023-03-01T05:47:44;94944.50;;;6.09;72.27
6528;BME280;64597;42.664;23.256;2023-03-01T05:50:12;94961.09;;;6.23;71.82
6528;BME280;64597;42.664;23.256;2023-03-01T05:52:38;94962.31;;;6.27;71.14
6528;BME280;64597;42.664;23.256;2023-03-01T05:55:03;94971.56;;;6.23;72.16
6528;BME280;64597;42.664;23.256;2023-03-01T05:57:29;94986.84;;;6.26;71.77
6528;BME280;64597;42.664;23.256;2023-03-01T05:59:55;94982.03;;;6.36;71.88
6528;BME280;64597;42.664;23.256;2023-03-01T06:02:20;94985.47;;;6.23;71.24
6528;BME280;64597;42.664;23.256;2023-03-01T06:04:45;94990.31;;;6.33;71.15
6528;BME280;64597;42.664;23.256;2023-03-01T06:07:11;94999.38;;;6.37;70.74
6528;BME280;64597;42.664;23.256;2023-03-01T06:09:36;94996.97;;;6.42;70.92
6528;BME280;64597;42.664;23.256;2023-03-01T06:12:02;94996.19;;;6.41;70.58
6528;BME280;64597;42.664;23.256;2023-03-01T06:14:27;94992.63;;;9.36;92.15
6528;BME280;64597;42.664;23.256;2023-03-01T06:16:52;94958.47;;;9.72;76.10
6528;BME280;64597;42.664;23.256;2023-03-01T06:19:18;94993.59;;;9.17;74.34
6528;BME280;64597;42.664;23.256;2023-03-01T06:21:43;94994.97;;;8.63;72.52
6528;BME280;64597;42.664;23.256;2023-03-01T06:24:09;94993.81;;;8.08;68.16
6528;BME280;64597;42.664;23.256;2023-03-01T06:26:34;95000.53;;;7.98;66.20
6528;BME280;64597;42.664;23.256;2023-03-01T06:29:00;94994.75;;;7.70;66.62
6528;BME280;64597;42.664;23.256;2023-03-01T06:31:25;95000.00;;;7.57;66.40
6528;BME280;64597;42.664;23.256;2023-03-01T06:33:50;95001.88;;;7.36;66.76
6528;BME280;64597;42.664;23.256;2023-03-01T06:36:16;95006.94;;;7.25;67.10
6528;BME280;64597;42.664;23.256;2023-03-01T06:38:44;95005.50;;;7.22;67.27
6528;BME280;64597;42.664;23.256;2023-03-01T06:41:09;95002.09;;;7.15;67.48
6528;BME280;64597;42.664;23.256;2023-03-01T06:43:35;95007.97;;;7.17;67.54
6528;BME280;64597;42.664;23.256;2023-03-01T06:46:04;95012.00;;;7.13;67.81
6528;BME280;64597;42.664;23.256;2023-03-01T06:48:30;95010.78;;;7.09;67.69
6528;BME280;64597;42.664;23.256;2023-03-01T06:50:58;94989.41;;;6.93;68.06
6528;BME280;64597;42.664;23.256;2023-03-01T06:53:23;94985.75;;;6.94;67.92
6528;BME280;64597;42.664;23.256;2023-03-01T06:55:54;95006.94;;;6.92;68.40
6528;BME280;64597;42.664;23.256;2023-03-01T06:58:20;95007.72;;;6.80;68.98
6528;BME280;64597;42.664;23.256;2023-03-01T07:00:45;95010.53;;;6.72;69.12
6528;BME280;64597;42.664;23.256;2023-03-01T07:03:10;94992.19;;;6.52;69.01
6528;BME280;64597;42.664;23.256;2023-03-01T07:05:36;95016.72;;;6.51;69.60
6528;BME280;64597;42.664;23.256;2023-03-01T07:08:01;95008.88;;;6.51;69.58
6528;BME280;64597;42.664;23.256;2023-03-01T07:10:27;95020.56;;;6.55;69.09
6528;BME280;64597;42.664;23.256;2023-03-01T07:12:56;95012.75;;;6.61;69.34
6528;BME280;64597;42.664;23.256;2023-03-01T07:15:22;95014.94;;;6.58;69.03
6528;BME280;64597;42.664;23.256;2023-03-01T07:17:48;95013.94;;;6.65;68.56
6528;BME280;64597;42.664;23.256;2023-03-01T07:20:16;95013.56;;;6.62;68.69
6528;BME280;64597;42.664;23.256;2023-03-01T07:22:41;94999.84;;;6.60;68.85
6528;BME280;64597;42.664;23.256;2023-03-01T07:25:08;94973.63;;;6.47;68.54
6528;BME280;64597;42.664;23.256;2023-03-01T07:27:34;94999.25;;;6.58;68.88
6528;BME280;64597;42.664;23.256;2023-03-01T07:29:59;94992.41;;;6.70;68.91
6528;BME280;64597;42.664;23.256;2023-03-01T07:32:25;95009.34;;;6.74;68.60
6528;BME280;64597;42.664;23.256;2023-03-01T07:34:51;95007.72;;;6.80;68.33
6528;BME280;64597;42.664;23.256;2023-03-01T07:37:16;94998.66;;;6.89;67.66
6528;BME280;64597;42.664;23.256;2023-03-01T07:39:42;95000.28;;;7.09;67.66
6528;BME280;64597;42.664;23.256;2023-03-01T07:42:08;94996.66;;;7.10;67.27
6528;BME280;64597;42.664;23.256;2023-03-01T07:44:33;94997.03;;;7.07;67.31
6528;BME280;64597;42.664;23.256;2023-03-01T07:47:03;94996.44;;;6.92;67.18
6528;BME280;64597;42.664;23.256;2023-03-01T07:49:28;94999.47;;;7.02;67.26
6528;BME280;64597;42.664;23.256;2023-03-01T07:51:54;94991.41;;;6.97;67.48
6528;BME280;64597;42.664;23.256;2023-03-01T07:54:20;94994.41;;;7.07;67.19
6528;BME280;64597;42.664;23.256;2023-03-01T07:56:45;94994.63;;;7.19;67.13
6528;BME280;64597;42.664;23.256;2023-03-01T07:59:11;94987.78;;;7.11;66.89
6528;BME280;64597;42.664;23.256;2023-03-01T08:01:36;94987.16;;;7.16;66.76
6528;BME280;64597;42.664;23.256;2023-03-01T08:04:01;94976.88;;;7.14;66.68
6528;BME280;64597;42.664;23.256;2023-03-01T08:06:27;94968.00;;;7.02;66.25
6528;BME280;64597;42.664;23.256;2023-03-01T08:08:53;94981.13;;;7.15;65.94
6528;BME280;64597;42.664;23.256;2023-03-01T08:11:20;94976.47;;;7.04;66.12
6528;BME280;64597;42.664;23.256;2023-03-01T08:13:48;94986.16;;;6.97;66.45
6528;BME280;64597;42.664;23.256;2023-03-01T08:16:15;94984.56;;;7.09;66.33
6528;BME280;64597;42.664;23.256;2023-03-01T08:18:41;94978.91;;;7.25;66.24
6528;BME280;64597;42.664;23.256;2023-03-01T08:21:17;94978.47;;;7.28;65.83
6528;BME280;64597;42.664;23.256;2023-03-01T08:23:43;94989.78;;;7.29;64.98
6528;BME280;64597;42.664;23.256;2023-03-01T08:26:11;94985.34;;;7.16;65.87
6528;BME280;64597;42.664;23.256;2023-03-01T08:28:38;94992.81;;;7.00;66.19
6528;BME280;64597;42.664;23.256;2023-03-01T08:31:16;94972.47;;;6.89;66.20
6528;BME280;64597;42.664;23.256;2023-03-01T08:33:42;94980.13;;;6.97;66.55
6528;BME280;64597;42.664;23.256;2023-03-01T08:36:07;94994.63;;;6.86;67.19
6528;BME280;64597;42.664;23.256;2023-03-01T08:38:34;94972.47;;;6.82;67.29
6528;BME280;64597;42.664;23.256;2023-03-01T08:41:03;94995.06;;;7.09;66.74
6528;BME280;64597;42.664;23.256;2023-03-01T08:43:29;94979.91;;;7.11;66.25
6528;BME280;64597;42.664;23.256;2023-03-01T08:45:54;94983.94;;;7.20;66.22
6528;BME280;64597;42.664;23.256;2023-03-01T08:48:20;94972.66;;;7.13;66.11
6528;BME280;64597;42.664;23.256;2023-03-01T08:50:46;94979.50;;;7.27;66.03
6528;BME280;64597;42.664;23.256;2023-03-01T08:53:11;94988.97;;;7.35;65.34
6528;BME280;64597;42.664;23.256;2023-03-01T08:55:37;94985.94;;;7.31;64.93
6528;BME280;64597;42.664;23.256;2023-03-01T08:58:02;94993.00;;;7.37;65.10
6528;BME280;64597;42.664;23.256;2023-03-01T09:00:28;94985.53;;;7.34;64.60
6528;BME280;64597;42.664;23.256;2023-03-01T09:02:53;94996.41;;;7.38;64.25
6528;BME280;64597;42.664;23.256;2023-03-01T09:05:19;94988.56;;;7.31;64.69
6528;BME280;64597;42.664;23.256;2023-03-01T09:07:44;94984.16;;;7.25;64.52
6528;BME280;64597;42.664;23.256;2023-03-01T09:10:10;94991.00;;;7.26;64.70
6528;BME280;64597;42.664;23.256;2023-03-01T09:12:35;94978.47;;;7.35;64.32
6528;BME280;64597;42.664;23.256;2023-03-01T09:15:01;94985.34;;;7.29;64.98
6528;BME280;64597;42.664;23.256;2023-03-01T09:17:26;94995.84;;;7.29;64.48
6528;BME280;64597;42.664;23.256;2023-03-01T09:19:52;94995.22;;;7.14;64.51
6528;BME280;64597;42.664;23.256;2023-03-01T09:22:17;94958.53;;;7.01;64.77
6528;BME280;64597;42.664;23.256;2023-03-01T09:24:43;94979.13;;;7.17;65.64
6528;BME280;64597;42.664;23.256;2023-03-01T09:27:08;94976.88;;;7.27;65.22
6528;BME280;64597;42.664;23.256;2023-03-01T09:29:36;94964.16;;;7.37;65.51
6528;BME280;64597;42.664;23.256;2023-03-01T09:32:02;94973.63;;;7.38;64.65
6528;BME280;64597;42.664;23.256;2023-03-01T09:34:27;94974.41;;;7.52;64.67
6528;BME280;64597;42.664;23.256;2023-03-01T09:36:52;94970.38;;;7.49;64.85
6528;BME280;64597;42.664;23.256;2023-03-01T09:39:18;94942.94;;;7.45;64.13
6528;BME280;64597;42.664;23.256;2023-03-01T09:42:01;94967.31;;;7.66;64.23
6528;BME280;64597;42.664;23.256;2023-03-01T09:44:39;94968.13;;;7.73;63.59
6528;BME280;64597;42.664;23.256;2023-03-01T09:47:05;94953.75;;;7.69;63.44
6528;BME280;64597;42.664;23.256;2023-03-01T09:49:36;94960.63;;;7.76;63.78
6528;BME280;64597;42.664;23.256;2023-03-01T09:52:25;94948.84;;;7.92;63.87
6528;BME280;64597;42.664;23.256;2023-03-01T09:54:55;94951.50;;;7.85;63.45
6528;BME280;64597;42.664;23.256;2023-03-01T09:57:38;94948.84;;;7.92;63.76
6528;BME280;64597;42.664;23.256;2023-03-01T10:03:11;94950.84;;;8.03;63.37
6528;BME280;64597;42.664;23.256;2023-03-01T10:05:47;94944.63;;;7.91;63.11
6528;BME280;64597;42.664;23.256;2023-03-01T10:10:58;94937.59;;;7.85;63.63
6528;BME280;64597;42.664;23.256;2023-03-01T10:13:34;94939.16;;;7.92;64.22
6528;BME280;64597;42.664;23.256;2023-03-01T10:16:16;94942.41;;;7.81;63.47
6528;BME280;64597;42.664;23.256;2023-03-01T10:18:45;94938.56;;;7.90;63.53
6528;BME280;64597;42.664;23.256;2023-03-01T10:21:15;94932.88;;;7.93;63.33
6528;BME280;64597;42.664;23.256;2023-03-01T10:23:42;94937.50;;;8.04;63.23
6528;BME280;64597;42.664;23.256;2023-03-01T10:31:15;94936.88;;;8.02;62.72
6528;BME280;64597;42.664;23.256;2023-03-01T10:33:43;94928.63;;;7.99;63.47
6528;BME280;64597;42.664;23.256;2023-03-01T10:36:08;94926.63;;;7.94;63.44
6528;BME280;64597;42.664;23.256;2023-03-01T10:38:57;94924.13;;;8.06;63.44
6528;BME280;64597;42.664;23.256;2023-03-01T10:41:25;94924.16;;;7.99;63.78
6528;BME280;64597;42.664;23.256;2023-03-01T10:43:53;94919.72;;;8.00;63.86
6528;BME280;64597;42.664;23.256;2023-03-01T10:46:33;94921.50;;;8.06;63.32
6528;BME280;64597;42.664;23.256;2023-03-01T10:51:45;94911.34;;;8.16;63.08
6528;BME280;64597;42.664;23.256;2023-03-01T10:54:25;94923.94;;;8.07;62.76
6528;BME280;64597;42.664;23.256;2023-03-01T10:57:05;94920.03;;;7.79;64.13
6528;BME280;64597;42.664;23.256;2023-03-01T10:59:35;94916.22;;;7.75;64.05
6528;BME280;64597;42.664;23.256;2023-03-01T11:02:28;94929.13;;;7.76;64.36
6528;BME280;64597;42.664;23.256;2023-03-01T11:04:59;94914.63;;;7.61;64.20
6528;BME280;64597;42.664;23.256;2023-03-01T11:07:26;94945.72;;;7.70;64.52
6528;BME280;64597;42.664;23.256;2023-03-01T11:09:52;94922.28;;;7.69;64.16
6528;BME280;64597;42.664;23.256;2023-03-01T11:12:17;94930.97;;;7.63;64.32
6528;BME280;64597;42.664;23.256;2023-03-01T11:14:48;94919.13;;;7.54;64.19
6528;BME280;64597;42.664;23.256;2023-03-01T11:19:42;94918.84;;;7.75;64.13
6528;BME280;64597;42.664;23.256;2023-03-01T11:22:19;94924.25;;;7.80;64.01
6528;BME280;64597;42.664;23.256;2023-03-01T11:24:52;94924.06;;;7.81;63.98
6528;BME280;64597;42.664;23.256;2023-03-01T11:27:28;94917.00;;;7.82;64.05
6528;BME280;64597;42.664;23.256;2023-03-01T11:35:25;94920.06;;;8.10;63.33
6528;BME280;64597;42.664;23.256;2023-03-01T11:40:30;94906.50;;;7.82;64.06
6528;BME280;64597;42.664;23.256;2023-03-01T11:48:56;94885.09;;;7.85;63.86
6528;BME280;64597;42.664;23.256;2023-03-01T11:54:13;94848.53;;;7.45;64.96
6528;BME280;64597;42.664;23.256;2023-03-01T11:56:48;94884.53;;;7.70;64.15
6528;BME280;64597;42.664;23.256;2023-03-01T12:01:49;94869.00;;;7.75;64.77
6528;BME280;64597;42.664;23.256;2023-03-01T12:14:39;94872.81;;;8.10;64.02
6528;BME280;64597;42.664;23.256;2023-03-01T12:17:22;94862.31;;;8.10;63.00
6528;BME280;64597;42.664;23.256;2023-03-01T12:33:39;94852.06;;;8.64;61.88
6528;BME280;64597;42.664;23.256;2023-03-01T12:50:11;94849.56;;;8.94;60.96
6528;BME280;64597;42.664;23.256;2023-03-01T12:52:44;94847.56;;;8.89;59.83
6528;BME280;64597;42.664;23.256;2023-03-01T12:55:35;94843.50;;;8.93;59.88
6528;BME280;64597;42.664;23.256;2023-03-01T12:58:23;94843.16;;;9.08;59.37
6528;BME280;64597;42.664;23.256;2023-03-01T13:06:15;94828.94;;;9.16;59.26
6528;BME280;64597;42.664;23.256;2023-03-01T13:08:44;94840.97;;;9.41;58.65
6528;BME280;64597;42.664;23.256;2023-03-01T13:11:21;94852.88;;;9.44;58.23
6528;BME280;64597;42.664;23.256;2023-03-01T13:13:48;94827.81;;;9.23;58.77
6528;BME280;64597;42.664;23.256;2023-03-01T13:16:40;94846.59;;;9.27;58.82
6528;BME280;64597;42.664;23.256;2023-03-01T13:21:39;94844.91;;;9.14;59.51
6528;BME280;64597;42.664;23.256;2023-03-01T13:29:48;94852.28;;;9.05;60.09
6528;BME280;64597;42.664;23.256;2023-03-01T13:37:36;94847.03;;;9.05;59.40
6528;BME280;64597;42.664;23.256;2023-03-01T13:42:52;94849.19;;;8.90;60.51
6528;BME280;64597;42.664;23.256;2023-03-01T13:45:40;94845.97;;;8.88;60.84
6528;BME280;64597;42.664;23.256;2023-03-01T13:48:24;94839.38;;;8.79;60.85
6528;BME280;64597;42.664;23.256;2023-03-01T13:50:57;94851.84;;;8.66;61.40
6528;BME280;64597;42.664;23.256;2023-03-01T13:53:26;94846.25;;;8.56;62.20
6528;BME280;64597;42.664;23.256;2023-03-01T13:56:27;94847.72;;;8.76;61.74
6528;BME280;64597;42.664;23.256;2023-03-01T13:59:02;94831.31;;;8.32;62.34
6528;BME280;64597;42.664;23.256;2023-03-01T14:01:35;94843.47;;;8.51;61.51
6528;BME280;64597;42.664;23.256;2023-03-01T14:04:25;94838.16;;;8.57;62.43
6528;BME280;64597;42.664;23.256;2023-03-01T14:06:51;94839.72;;;8.40;61.50
6528;BME280;64597;42.664;23.256;2023-03-01T14:09:21;94832.16;;;8.25;63.08
6528;BME280;64597;42.664;23.256;2023-03-01T14:14:53;94834.22;;;8.48;61.87
6528;BME280;64597;42.664;23.256;2023-03-01T14:17:34;94837.09;;;8.40;62.80
6528;BME280;64597;42.664;23.256;2023-03-01T14:20:14;94836.72;;;8.37;62.39
6528;BME280;64597;42.664;23.256;2023-03-01T14:22:42;94832.16;;;8.50;61.96
6528;BME280;64597;42.664;23.256;2023-03-01T14:25:21;94824.78;;;8.59;61.91
6528;BME280;64597;42.664;23.256;2023-03-01T14:27:55;94832.16;;;8.50;61.93
6528;BME280;64597;42.664;23.256;2023-03-01T14:30:26;94835.31;;;8.59;62.76
6528;BME280;64597;42.664;23.256;2023-03-01T14:32:57;94833.34;;;8.54;62.53
6528;BME280;64597;42.664;23.256;2023-03-01T14:35:27;94818.59;;;8.53;62.40
6528;BME280;64597;42.664;23.256;2023-03-01T14:37:53;94830.13;;;8.52;62.58
6528;BME280;64597;42.664;23.256;2023-03-01T14:40:26;94800.31;;;8.40;61.82
6528;BME280;64597;42.664;23.256;2023-03-01T14:42:53;94828.50;;;8.51;62.02
6528;BME280;64597;42.664;23.256;2023-03-01T14:45:20;94819.34;;;8.60;61.90
6528;BME280;64597;42.664;23.256;2023-03-01T14:47:46;94822.88;;;8.48;62.15
6528;BME280;64597;42.664;23.256;2023-03-01T14:50:25;94808.63;;;8.37;62.37
6528;BME280;64597;42.664;23.256;2023-03-01T14:52:54;94799.84;;;8.50;61.68
6528;BME280;64597;42.664;23.256;2023-03-01T14:55:34;94822.63;;;8.31;63.36
6528;BME280;64597;42.664;23.256;2023-03-01T14:58:05;94824.78;;;8.34;62.97
6528;BME280;64597;42.664;23.256;2023-03-01T15:00:32;94814.16;;;8.22;63.62
6528;BME280;64597;42.664;23.256;2023-03-01T15:03:12;94816.50;;;8.06;63.94
6528;BME280;64597;42.664;23.256;2023-03-01T15:05:40;94815.56;;;7.94;64.59
6528;BME280;64597;42.664;23.256;2023-03-01T15:08:17;94813.78;;;7.88;65.24
6528;BME280;64597;42.664;23.256;2023-03-01T15:10:56;94817.53;;;7.67;65.96